sensor_id;sensor_type;location;lat;lon;timestamp;P1;durP1;ratioP1;P2;durP2;ratioP2
16577;SDS011;8401;52.528;13.340;2023-11-21T00:00:25;8.80;;;5.63;;
16577;SDS011;8401;52.528;13.340;2023-11-21T00:02:51;9.07;;;6.13;;
16577;SDS011;8401;52.528;13.340;2023-11-21T00:05:17;13.43;;;7.73;;
16577;SDS011;8401;52.528;13.340;2023-11-21T00:07:43;15.20;;;8.13;;
16577;SDS011;8401;52.528;13.340;2023-11-21T00:10:09;14.20;;;8.83;;
16577;SDS011;8401;52.528;13.340;2023-11-21T00:12:36;15.70;;;9.07;;
16577;SDS011;8401;52.528;13.340;2023-11-21T00:15:02;18.00;;;10.50;;
16577;SDS011;8401;52.528;13.340;2023-11-21T00:17:30;17.07;;;9.97;;
16577;SDS011;8401;52.528;13.340;2023-11-21T00:19:56;20.07;;;10.57;;
16577;SDS011;8401;52.528;13.340;2023-11-21T00:22:22;16.30;;;10.00;;
16577;SDS011;8401;52.528;13.340;2023-11-21T00:24:48;21.03;;;11.50;;
16577;SDS011;8401;52.528;13.340;2023-11-21T00:27:13;21.00;;;11.93;;
16577;SDS011;8401;52.528;13.340;2023-11-21T00:29:39;22.33;;;11.83;;
16577;SDS011;8401;52.528;13.340;2023-11-21T00:32:05;22.77;;;12.47;;
16577;SDS011;8401;52.528;13.340;2023-11-21T00:34:32;27.17;;;13.63;;
16577;SDS011;8401;52.528;13.340;2023-11-21T00:36:59;25.97;;;13.07;;
16577;SDS011;8401;52.528;13.340;2023-11-21T00:39:25;21.77;;;12.30;;
16577;SDS011;8401;52.528;13.340;2023-11-21T00:41:51;26.20;;;13.30;;
16577;SDS011;8401;52.528;13.340;2023-11-21T00:44:17;23.73;;;13.47;;
16577;SDS011;8401;52.528;13.340;2023-11-21T00:46:43;26.60;;;13.10;;
16577;SDS011;8401;52.528;13.340;2023-11-21T00:49:09;33.00;;;14.97;;
16577;SDS011;8401;52.528;13.340;2023-11-21T00:51:34;31.20;;;14.17;;
16577;SDS011;8401;52.528;13.340;2023-11-21T00:54:01;31.63;;;14.93;;
16577;SDS011;8401;52.528;13.340;2023-11-21T00:56:27;38.87;;;15.77;;
16577;SDS011;8401;52.528;13.340;2023-11-21T00:58:53;32.47;;;15.83;;
16577;SDS011;8401;52.528;13.340;2023-11-21T01:01:20;35.53;;;17.90;;
16577;SDS011;8401;52.528;13.340;2023-11-21T01:03:47;34.73;;;17.00;;
16577;SDS011;8401;52.528;13.340;2023-11-21T01:06:14;40.60;;;17.67;;
16577;SDS011;8401;52.528;13.340;2023-11-21T01:08:40;38.93;;;17.67;;
16577;SDS011;8401;52.528;13.340;2023-11-21T01:11:06;44.87;;;18.90;;
16577;SDS011;8401;52.528;13.340;2023-11-21T01:13:36;35.80;;;17.20;;
16577;SDS011;8401;52.528;13.340;2023-11-21T01:16:02;38.70;;;17.83;;
16577;SDS011;8401;52.528;13.340;2023-11-21T01:18:28;44.03;;;19.73;;
16577;SDS011;8401;52.528;13.340;2023-11-21T01:20:54;41.47;;;18.73;;
16577;SDS011;8401;52.528;13.340;2023-11-21T01:23:20;40.03;;;19.77;;
16577;SDS011;8401;52.528;13.340;2023-11-21T01:25:45;36.83;;;18.73;;
16577;SDS011;8401;52.528;13.340;2023-11-21T01:28:11;38.10;;;17.63;;
16577;SDS011;8401;52.528;13.340;2023-11-21T01:30:37;38.57;;;18.77;;
16577;SDS011;8401;52.528;13.340;2023-11-21T01:33:02;38.87;;;18.20;;
16577;SDS011;8401;52.528;13.340;2023-11-21T01:35:28;37.90;;;18.10;;
16577;SDS011;8401;52.528;13.340;2023-11-21T01:37:54;40.43;;;17.57;;
16577;SDS011;8401;52.528;13.340;2023-11-21T01:40:20;36.53;;;16.80;;
16577;SDS011;8401;52.528;13.340;2023-11-21T01:42:46;30.33;;;14.50;;
16577;SDS011;8401;52.528;13.340;2023-11-21T01:45:12;34.83;;;15.67;;
16577;SDS011;8401;52.528;13.340;2023-11-21T01:47:39;28.53;;;13.27;;
16577;SDS011;8401;52.528;13.340;2023-11-21T01:50:07;34.43;;;15.83;;
16577;SDS011;8401;52.528;13.340;2023-11-21T01:52:36;35.03;;;14.60;;
16577;SDS011;8401;52.528;13.340;2023-11-21T01:55:04;31.30;;;14.40;;
16577;SDS011;8401;52.528;13.340;2023-11-21T01:57:31;35.60;;;15.17;;
16577;SDS011;8401;52.528;13.340;2023-11-21T01:59:57;31.53;;;15.53;;
16577;SDS011;8401;52.528;13.340;2023-11-21T02:02:40;29.07;;;13.03;;
16577;SDS011;8401;52.528;13.340;2023-11-21T02:05:10;24.63;;;12.37;;
16577;SDS011;8401;52.528;13.340;2023-11-21T02:07:37;28.97;;;13.17;;
16577;SDS011;8401;52.528;13.340;2023-11-21T02:10:04;25.07;;;11.23;;
16577;SDS011;8401;52.528;13.340;2023-11-21T02:12:33;23.53;;;10.90;;
16577;SDS011;8401;52.528;13.340;2023-11-21T02:15:04;24.47;;;11.40;;
16577;SDS011;8401;52.528;13.340;2023-11-21T02:17:34;21.67;;;10.43;;
16577;SDS011;8401;52.528;13.340;2023-11-21T02:20:00;17.77;;;9.70;;
16577;SDS011;8401;52.528;13.340;2023-11-21T02:22:28;16.03;;;9.17;;
16577;SDS011;8401;52.528;13.340;2023-11-21T02:24:57;14.93;;;8.40;;
16577;SDS011;8401;52.528;13.340;2023-11-21T02:27:23;14.50;;;9.10;;
16577;SDS011;8401;52.528;13.340;2023-11-21T02:29:49;13.07;;;7.97;;
16577;SDS011;8401;52.528;13.340;2023-11-21T02:32:15;13.10;;;7.73;;
16577;SDS011;8401;52.528;13.340;2023-11-21T02:34:44;12.63;;;7.50;;
16577;SDS011;8401;52.528;13.340;2023-11-21T02:37:10;14.23;;;7.23;;
16577;SDS011;8401;52.528;13.340;2023-11-21T02:39:35;14.50;;;7.57;;
16577;SDS011;8401;52.528;13.340;2023-11-21T02:42:01;11.87;;;7.37;;
16577;SDS011;8401;52.528;13.340;2023-11-21T02:44:26;12.10;;;7.57;;
16577;SDS011;8401;52.528;13.340;2023-11-21T02:46:52;11.40;;;7.47;;
16577;SDS011;8401;52.528;13.340;2023-11-21T02:49:18;9.73;;;6.83;;
16577;SDS011;8401;52.528;13.340;2023-11-21T02:51:43;10.40;;;7.53;;
16577;SDS011;8401;52.528;13.340;2023-11-21T02:54:09;12.23;;;7.67;;
16577;SDS011;8401;52.528;13.340;2023-11-21T02:56:35;11.23;;;7.60;;
16577;SDS011;8401;52.528;13.340;2023-11-21T02:59:00;13.40;;;7.67;;
16577;SDS011;8401;52.528;13.340;2023-11-21T03:01:26;12.23;;;7.37;;
16577;SDS011;8401;52.528;13.340;2023-11-21T03:03:53;11.83;;;7.87;;
16577;SDS011;8401;52.528;13.340;2023-11-21T03:06:20;11.53;;;8.13;;
16577;SDS011;8401;52.528;13.340;2023-11-21T03:08:46;11.97;;;7.33;;
16577;SDS011;8401;52.528;13.340;2023-11-21T03:11:12;18.63;;;7.80;;
16577;SDS011;8401;52.528;13.340;2023-11-21T03:13:41;10.63;;;7.37;;
16577;SDS011;8401;52.528;13.340;2023-11-21T03:16:10;9.63;;;7.20;;
16577;SDS011;8401;52.528;13.340;2023-11-21T03:18:37;10.70;;;7.07;;
16577;SDS011;8401;52.528;13.340;2023-11-21T03:21:06;13.10;;;8.13;;
16577;SDS011;8401;52.528;13.340;2023-11-21T03:23:36;11.17;;;7.63;;
16577;SDS011;8401;52.528;13.340;2023-11-21T03:26:02;11.33;;;7.40;;
16577;SDS011;8401;52.528;13.340;2023-11-21T03:28:28;11.33;;;7.33;;
16577;SDS011;8401;52.528;13.340;2023-11-21T03:30:55;10.30;;;7.40;;
16577;SDS011;8401;52.528;13.340;2023-11-21T03:33:21;10.80;;;7.37;;
16577;SDS011;8401;52.528;13.340;2023-11-21T03:35:47;11.50;;;7.47;;
16577;SDS011;8401;52.528;13.340;2023-11-21T03:38:13;10.90;;;8.07;;
16577;SDS011;8401;52.528;13.340;2023-11-21T03:40:39;11.57;;;8.13;;
16577;SDS011;8401;52.528;13.340;2023-11-21T03:43:05;11.27;;;8.00;;
16577;SDS011;8401;52.528;13.340;2023-11-21T03:45:31;11.40;;;7.87;;
16577;SDS011;8401;52.528;13.340;2023-11-21T03:47:57;11.53;;;7.50;;
16577;SDS011;8401;52.528;13.340;2023-11-21T03:50:23;10.70;;;7.60;;
16577;SDS011;8401;52.528;13.340;2023-11-21T03:52:48;10.10;;;7.30;;
16577;SDS011;8401;52.528;13.340;2023-11-21T03:55:14;10.17;;;7.30;;
16577;SDS011;8401;52.528;13.340;2023-11-21T03:57:40;11.77;;;8.07;;
16577;SDS011;8401;52.528;13.340;2023-11-21T04:00:06;12.60;;;7.70;;
16577;SDS011;8401;52.528;13.340;2023-11-21T04:02:37;11.50;;;7.40;;
16577;SDS011;8401;52.528;13.340;2023-11-21T04:05:04;10.80;;;8.23;;
16577;SDS011;8401;52.528;13.340;2023-11-21T04:07:32;12.63;;;8.53;;
16577;SDS011;8401;52.528;13.340;2023-11-21T04:09:57;12.33;;;8.43;;
16577;SDS011;8401;52.528;13.340;2023-11-21T04:12:24;13.03;;;8.13;;
16577;SDS011;8401;52.528;13.340;2023-11-21T04:14:49;12.07;;;8.47;;
16577;SDS011;8401;52.528;13.340;2023-11-21T04:17:17;13.10;;;7.83;;
16577;SDS011;8401;52.528;13.340;2023-11-21T04:19:44;13.80;;;8.73;;
16577;SDS011;8401;52.528;13.340;2023-11-21T04:22:11;12.57;;;8.43;;
16577;SDS011;8401;52.528;13.340;2023-11-21T04:24:37;12.20;;;8.70;;
16577;SDS011;8401;52.528;13.340;2023-11-21T04:27:02;12.83;;;8.00;;
16577;SDS011;8401;52.528;13.340;2023-11-21T04:29:28;12.60;;;7.97;;
16577;SDS011;8401;52.528;13.340;2023-11-21T04:31:54;11.07;;;8.17;;
16577;SDS011;8401;52.528;13.340;2023-11-21T04:34:20;11.43;;;7.67;;
16577;SDS011;8401;52.528;13.340;2023-11-21T04:36:46;13.00;;;8.33;;
16577;SDS011;8401;52.528;13.340;2023-11-21T04:39:11;11.10;;;7.73;;
16577;SDS011;8401;52.528;13.340;2023-11-21T04:41:37;12.57;;;8.30;;
16577;SDS011;8401;52.528;13.340;2023-11-21T04:44:04;11.77;;;8.20;;
16577;SDS011;8401;52.528;13.340;2023-11-21T04:46:31;10.33;;;7.50;;
16577;SDS011;8401;52.528;13.340;2023-11-21T04:48:57;11.37;;;7.97;;
16577;SDS011;8401;52.528;13.340;2023-11-21T04:51:23;12.10;;;8.97;;
16577;SDS011;8401;52.528;13.340;2023-11-21T04:53:48;11.83;;;8.27;;
16577;SDS011;8401;52.528;13.340;2023-11-21T04:56:14;11.77;;;8.30;;
16577;SDS011;8401;52.528;13.340;2023-11-21T04:58:41;11.17;;;7.43;;
16577;SDS011;8401;52.528;13.340;2023-11-21T05:01:09;11.53;;;7.67;;
16577;SDS011;8401;52.528;13.340;2023-11-21T05:03:35;10.90;;;7.97;;
16577;SDS011;8401;52.528;13.340;2023-11-21T05:06:01;8.73;;;6.37;;
16577;SDS011;8401;52.528;13.340;2023-11-21T05:08:27;8.17;;;5.93;;
16577;SDS011;8401;52.528;13.340;2023-11-21T05:10:52;10.90;;;7.23;;
16577;SDS011;8401;52.528;13.340;2023-11-21T05:13:18;10.77;;;6.67;;
16577;SDS011;8401;52.528;13.340;2023-11-21T05:15:45;9.40;;;6.17;;
16577;SDS011;8401;52.528;13.340;2023-11-21T05:18:11;8.67;;;5.97;;
16577;SDS011;8401;52.528;13.340;2023-11-21T05:20:38;10.33;;;7.17;;
16577;SDS011;8401;52.528;13.340;2023-11-21T05:23:05;9.77;;;6.60;;
16577;SDS011;8401;52.528;13.340;2023-11-21T05:25:32;9.30;;;6.30;;
16577;SDS011;8401;52.528;13.340;2023-11-21T05:27:58;10.40;;;6.47;;
16577;SDS011;8401;52.528;13.340;2023-11-21T05:30:26;10.20;;;6.67;;
16577;SDS011;8401;52.528;13.340;2023-11-21T05:32:51;11.43;;;7.40;;
16577;SDS011;8401;52.528;13.340;2023-11-21T05:35:18;10.07;;;6.63;;
16577;SDS011;8401;52.528;13.340;2023-11-21T05:37:44;8.20;;;6.53;;
16577;SDS011;8401;52.528;13.340;2023-11-21T05:40:10;10.10;;;6.10;;
16577;SDS011;8401;52.528;13.340;2023-11-21T05:42:38;11.10;;;6.37;;
16577;SDS011;8401;52.528;13.340;2023-11-21T05:45:05;8.87;;;6.20;;
16577;SDS011;8401;52.528;13.340;2023-11-21T05:47:44;8.10;;;6.37;;
16577;SDS011;8401;52.528;13.340;2023-11-21T05:50:12;11.10;;;6.47;;
16577;SDS011;8401;52.528;13.340;2023-11-21T05:52:41;8.73;;;5.67;;
16577;SDS011;8401;52.528;13.340;2023-11-21T05:55:08;9.40;;;6.13;;
16577;SDS011;8401;52.528;13.340;2023-11-21T05:57:34;10.37;;;5.90;;
16577;SDS011;8401;52.528;13.340;2023-11-21T06:00:07;7.53;;;5.07;;
16577;SDS011;8401;52.528;13.340;2023-11-21T06:02:57;8.43;;;5.37;;
16577;SDS011;8401;52.528;13.340;2023-11-21T06:05:23;9.07;;;5.80;;
16577;SDS011;8401;52.528;13.340;2023-11-21T06:07:50;7.80;;;5.30;;
16577;SDS011;8401;52.528;13.340;2023-11-21T06:10:17;7.60;;;5.33;;
16577;SDS011;8401;52.528;13.340;2023-11-21T06:12:44;8.07;;;5.50;;
16577;SDS011;8401;52.528;13.340;2023-11-21T06:15:10;7.57;;;5.53;;
16577;SDS011;8401;52.528;13.340;2023-11-21T06:17:39;7.57;;;4.70;;
16577;SDS011;8401;52.528;13.340;2023-11-21T06:20:05;6.43;;;4.73;;
16577;SDS011;8401;52.528;13.340;2023-11-21T06:25:05;7.63;;;5.00;;
16577;SDS011;8401;52.528;13.340;2023-11-21T06:27:33;7.40;;;4.17;;
16577;SDS011;8401;52.528;13.340;2023-11-21T06:30:01;7.53;;;4.23;;
16577;SDS011;8401;52.528;13.340;2023-11-21T06:32:27;6.53;;;4.20;;
16577;SDS011;8401;52.528;13.340;2023-11-21T06:34:54;5.70;;;3.80;;
16577;SDS011;8401;52.528;13.340;2023-11-21T06:37:26;6.23;;;4.17;;
16577;SDS011;8401;52.528;13.340;2023-11-21T06:39:52;5.70;;;4.07;;
16577;SDS011;8401;52.528;13.340;2023-11-21T06:42:18;4.53;;;3.53;;
16577;SDS011;8401;52.528;13.340;2023-11-21T06:44:45;5.83;;;4.20;;
16577;SDS011;8401;52.528;13.340;2023-11-21T06:47:10;5.20;;;3.67;;
16577;SDS011;8401;52.528;13.340;2023-11-21T06:49:36;5.90;;;3.67;;
16577;SDS011;8401;52.528;13.340;2023-11-21T06:54:53;6.13;;;4.27;;
16577;SDS011;8401;52.528;13.340;2023-11-21T06:57:18;5.47;;;3.90;;
16577;SDS011;8401;52.528;13.340;2023-11-21T06:59:44;5.50;;;4.30;;
16577;SDS011;8401;52.528;13.340;2023-11-21T07:20:17;6.53;;;4.40;;
16577;SDS011;8401;52.528;13.340;2023-11-21T07:22:43;6.20;;;4.23;;
16577;SDS011;8401;52.528;13.340;2023-11-21T07:25:09;6.37;;;4.50;;
16577;SDS011;8401;52.528;13.340;2023-11-21T07:27:35;6.33;;;4.10;;
16577;SDS011;8401;52.528;13.340;2023-11-21T07:30:02;5.87;;;4.20;;
16577;SDS011;8401;52.528;13.340;2023-11-21T07:32:30;6.97;;;4.20;;
16577;SDS011;8401;52.528;13.340;2023-11-21T07:34:56;5.90;;;3.90;;
16577;SDS011;8401;52.528;13.340;2023-11-21T07:37:23;6.33;;;3.80;;
16577;SDS011;8401;52.528;13.340;2023-11-21T07:39:48;6.30;;;4.07;;
16577;SDS011;8401;52.528;13.340;2023-11-21T07:42:14;5.63;;;3.90;;
16577;SDS011;8401;52.528;13.340;2023-11-21T07:44:40;6.20;;;4.50;;
16577;SDS011;8401;52.528;13.340;2023-11-21T07:47:06;6.63;;;4.07;;
16577;SDS011;8401;52.528;13.340;2023-11-21T07:49:31;6.63;;;4.03;;
16577;SDS011;8401;52.528;13.340;2023-11-21T07:51:57;6.00;;;3.93;;
16577;SDS011;8401;52.528;13.340;2023-11-21T07:54:22;4.63;;;3.67;;
16577;SDS011;8401;52.528;13.340;2023-11-21T07:56:48;5.17;;;3.53;;
16577;SDS011;8401;52.528;13.340;2023-11-21T07:59:14;5.50;;;3.80;;
16577;SDS011;8401;52.528;13.340;2023-11-21T08:01:39;6.07;;;3.40;;
16577;SDS011;8401;52.528;13.340;2023-11-21T08:04:05;5.23;;;3.50;;
16577;SDS011;8401;52.528;13.340;2023-11-21T08:06:31;5.37;;;3.80;;
16577;SDS011;8401;52.528;13.340;2023-11-21T08:08:58;4.70;;;3.30;;
16577;SDS011;8401;52.528;13.340;2023-11-21T08:11:24;5.37;;;3.73;;
16577;SDS011;8401;52.528;13.340;2023-11-21T08:13:49;6.27;;;3.67;;
16577;SDS011;8401;52.528;13.340;2023-11-21T08:16:15;5.70;;;4.03;;
16577;SDS011;8401;52.528;13.340;2023-11-21T08:18:41;6.23;;;4.20;;
16577;SDS011;8401;52.528;13.340;2023-11-21T08:21:07;6.60;;;3.70;;
16577;SDS011;8401;52.528;13.340;2023-11-21T08:23:33;4.63;;;3.53;;
16577;SDS011;8401;52.528;13.340;2023-11-21T08:25:59;6.80;;;4.60;;
16577;SDS011;8401;52.528;13.340;2023-11-21T08:28:27;5.87;;;4.33;;
16577;SDS011;8401;52.528;13.340;2023-11-21T08:30:52;6.50;;;4.00;;
16577;SDS011;8401;52.528;13.340;2023-11-21T08:33:19;5.13;;;3.93;;
16577;SDS011;8401;52.528;13.340;2023-11-21T08:35:45;6.13;;;4.23;;
16577;SDS011;8401;52.528;13.340;2023-11-21T08:38:11;6.13;;;4.00;;
16577;SDS011;8401;52.528;13.340;2023-11-21T08:40:37;5.77;;;4.47;;
16577;SDS011;8401;52.528;13.340;2023-11-21T08:43:03;6.23;;;4.10;;
16577;SDS011;8401;52.528;13.340;2023-11-21T08:45:29;4.60;;;3.63;;
16577;SDS011;8401;52.528;13.340;2023-11-21T08:47:56;5.73;;;4.13;;
16577;SDS011;8401;52.528;13.340;2023-11-21T08:50:21;6.27;;;4.33;;
16577;SDS011;8401;52.528;13.340;2023-11-21T08:52:47;5.90;;;4.10;;
16577;SDS011;8401;52.528;13.340;2023-11-21T08:55:13;6.47;;;4.10;;
16577;SDS011;8401;52.528;13.340;2023-11-21T08:57:40;5.83;;;3.87;;
16577;SDS011;8401;52.528;13.340;2023-11-21T09:00:08;5.83;;;3.90;;
16577;SDS011;8401;52.528;13.340;2023-11-21T09:02:36;5.50;;;4.40;;
16577;SDS011;8401;52.528;13.340;2023-11-21T09:05:08;5.53;;;4.50;;
16577;SDS011;8401;52.528;13.340;2023-11-21T09:07:35;5.07;;;3.90;;
16577;SDS011;8401;52.528;13.340;2023-11-21T09:10:02;6.37;;;3.70;;
16577;SDS011;8401;52.528;13.340;2023-11-21T09:12:28;5.00;;;3.80;;
16577;SDS011;8401;52.528;13.340;2023-11-21T09:14:54;6.33;;;3.77;;
16577;SDS011;8401;52.528;13.340;2023-11-21T09:17:19;6.03;;;3.70;;
16577;SDS011;8401;52.528;13.340;2023-11-21T09:19:45;8.40;;;3.90;;
16577;SDS011;8401;52.528;13.340;2023-11-21T09:22:15;6.27;;;4.10;;
16577;SDS011;8401;52.528;13.340;2023-11-21T09:24:41;7.50;;;3.77;;
16577;SDS011;8401;52.528;13.340;2023-11-21T09:27:07;6.07;;;3.60;;
16577;SDS011;8401;52.528;13.340;2023-11-21T09:29:33;5.70;;;3.90;;
16577;SDS011;8401;52.528;13.340;2023-11-21T09:31:58;7.53;;;3.87;;
16577;SDS011;8401;52.528;13.340;2023-11-21T09:34:24;6.80;;;4.40;;
16577;SDS011;8401;52.528;13.340;2023-11-21T09:36:50;8.53;;;4.40;;
16577;SDS011;8401;52.528;13.340;2023-11-21T09:39:18;10.17;;;4.53;;
16577;SDS011;8401;52.528;13.340;2023-11-21T09:41:51;9.13;;;4.83;;
16577;SDS011;8401;52.528;13.340;2023-11-21T09:44:35;9.70;;;4.97;;
16577;SDS011;8401;52.528;13.340;2023-11-21T09:47:11;7.83;;;4.40;;
16577;SDS011;8401;52.528;13.340;2023-11-21T09:49:41;10.17;;;5.07;;
16577;SDS011;8401;52.528;13.340;2023-11-21T09:52:11;8.07;;;5.07;;
16577;SDS011;8401;52.528;13.340;2023-11-21T09:54:49;11.13;;;5.33;;
16577;SDS011;8401;52.528;13.340;2023-11-21T09:57:15;12.67;;;6.40;;
16577;SDS011;8401;52.528;13.340;2023-11-21T09:59:41;14.37;;;7.63;;
16577;SDS011;8401;52.528;13.340;2023-11-21T10:02:09;15.27;;;7.27;;
16577;SDS011;8401;52.528;13.340;2023-11-21T10:04:38;14.00;;;7.87;;
16577;SDS011;8401;52.528;13.340;2023-11-21T10:07:04;13.70;;;6.77;;
16577;SDS011;8401;52.528;13.340;2023-11-21T10:09:34;11.80;;;5.70;;
16577;SDS011;8401;52.528;13.340;2023-11-21T10:12:03;14.43;;;6.47;;
16577;SDS011;8401;52.528;13.340;2023-11-21T10:14:31;22.57;;;11.20;;
16577;SDS011;8401;52.528;13.340;2023-11-21T10:16:58;14.40;;;7.37;;
16577;SDS011;8401;52.528;13.340;2023-11-21T10:19:24;13.47;;;6.97;;
16577;SDS011;8401;52.528;13.340;2023-11-21T10:21:52;12.17;;;7.50;;
16577;SDS011;8401;52.528;13.340;2023-11-21T10:24:19;13.93;;;6.13;;
16577;SDS011;8401;52.528;13.340;2023-11-21T10:26:45;11.50;;;6.33;;
16577;SDS011;8401;52.528;13.340;2023-11-21T10:29:13;12.83;;;5.90;;
16577;SDS011;8401;52.528;13.340;2023-11-21T10:31:41;11.37;;;6.57;;
16577;SDS011;8401;52.528;13.340;2023-11-21T10:34:14;10.17;;;5.67;;
16577;SDS011;8401;52.528;13.340;2023-11-21T10:36:41;12.27;;;5.90;;
16577;SDS011;8401;52.528;13.340;2023-11-21T10:39:07;11.07;;;5.77;;
16577;SDS011;8401;52.528;13.340;2023-11-21T10:41:34;10.27;;;4.97;;
16577;SDS011;8401;52.528;13.340;2023-11-21T10:44:00;9.30;;;5.77;;
16577;SDS011;8401;52.528;13.340;2023-11-21T10:46:29;8.03;;;4.53;;
16577;SDS011;8401;52.528;13.340;2023-11-21T10:48:55;9.13;;;5.17;;
16577;SDS011;8401;52.528;13.340;2023-11-21T10:51:22;11.20;;;5.60;;
16577;SDS011;8401;52.528;13.340;2023-11-21T10:53:49;8.43;;;4.87;;
16577;SDS011;8401;52.528;13.340;2023-11-21T10:56:17;7.80;;;4.40;;
16577;SDS011;8401;52.528;13.340;2023-11-21T10:58:46;8.00;;;4.67;;
16577;SDS011;8401;52.528;13.340;2023-11-21T11:01:19;8.53;;;4.73;;
16577;SDS011;8401;52.528;13.340;2023-11-21T11:03:48;7.87;;;4.60;;
16577;SDS011;8401;52.528;13.340;2023-11-21T11:06:15;8.23;;;5.10;;
16577;SDS011;8401;52.528;13.340;2023-11-21T11:08:41;7.77;;;5.57;;
16577;SDS011;8401;52.528;13.340;2023-11-21T11:11:07;7.57;;;4.20;;
16577;SDS011;8401;52.528;13.340;2023-11-21T11:13:34;6.57;;;3.83;;
16577;SDS011;8401;52.528;13.340;2023-11-21T11:16:01;7.27;;;3.70;;
16577;SDS011;8401;52.528;13.340;2023-11-21T11:18:30;4.53;;;3.13;;
16577;SDS011;8401;52.528;13.340;2023-11-21T11:35:46;7.03;;;3.30;;
16577;SDS011;8401;52.528;13.340;2023-11-21T11:38:33;5.30;;;3.20;;
16577;SDS011;8401;52.528;13.340;2023-11-21T11:41:03;4.40;;;3.40;;
16577;SDS011;8401;52.528;13.340;2023-11-21T11:43:30;4.93;;;2.80;;
16577;SDS011;8401;52.528;13.340;2023-11-21T11:45:58;4.40;;;3.07;;
16577;SDS011;8401;52.528;13.340;2023-11-21T11:48:25;5.33;;;3.20;;
16577;SDS011;8401;52.528;13.340;2023-11-21T11:53:36;3.17;;;2.67;;
16577;SDS011;8401;52.528;13.340;2023-11-21T11:58:46;3.33;;;2.50;;
16577;SDS011;8401;52.528;13.340;2023-11-21T12:01:19;4.37;;;3.10;;
16577;SDS011;8401;52.528;13.340;2023-11-21T12:06:59;4.27;;;2.53;;
16577;SDS011;8401;52.528;13.340;2023-11-21T12:09:28;4.30;;;2.70;;
16577;SDS011;8401;52.528;13.340;2023-11-21T12:11:55;3.50;;;2.67;;
16577;SDS011;8401;52.528;13.340;2023-11-21T12:14:25;4.57;;;2.70;;
16577;SDS011;8401;52.528;13.340;2023-11-21T12:16:50;4.13;;;2.87;;
16577;SDS011;8401;52.528;13.340;2023-11-21T12:19:17;3.13;;;2.57;;
16577;SDS011;8401;52.528;13.340;2023-11-21T12:21:43;4.30;;;3.10;;
16577;SDS011;8401;52.528;13.340;2023-11-21T12:24:13;4.30;;;2.77;;
16577;SDS011;8401;52.528;13.340;2023-11-21T12:26:41;3.60;;;3.00;;
16577;SDS011;8401;52.528;13.340;2023-11-21T12:29:07;6.57;;;3.90;;
16577;SDS011;8401;52.528;13.340;2023-11-21T12:31:33;5.23;;;3.43;;
16577;SDS011;8401;52.528;13.340;2023-11-21T12:33:59;3.80;;;3.20;;
16577;SDS011;8401;52.528;13.340;2023-11-21T12:36:25;5.17;;;3.27;;
16577;SDS011;8401;52.528;13.340;2023-11-21T12:38:51;8.27;;;3.67;;
16577;SDS011;8401;52.528;13.340;2023-11-21T12:41:17;4.37;;;3.40;;
16577;SDS011;8401;52.528;13.340;2023-11-21T12:43:43;4.27;;;3.47;;
16577;SDS011;8401;52.528;13.340;2023-11-21T12:46:09;5.20;;;3.90;;
16577;SDS011;8401;52.528;13.340;2023-11-21T12:48:38;3.57;;;3.10;;
16577;SDS011;8401;52.528;13.340;2023-11-21T12:51:09;3.20;;;2.87;;
16577;SDS011;8401;52.528;13.340;2023-11-21T12:53:35;3.60;;;2.80;;
16577;SDS011;8401;52.528;13.340;2023-11-21T12:56:06;4.67;;;3.23;;
16577;SDS011;8401;52.528;13.340;2023-11-21T12:58:39;6.33;;;3.70;;
16577;SDS011;8401;52.528;13.340;2023-11-21T13:01:10;4.83;;;3.47;;
16577;SDS011;8401;52.528;13.340;2023-11-21T13:03:37;4.57;;;3.03;;
16577;SDS011;8401;52.528;13.340;2023-11-21T13:06:05;5.93;;;3.40;;
16577;SDS011;8401;52.528;13.340;2023-11-21T13:08:33;3.43;;;2.90;;
16577;SDS011;8401;52.528;13.340;2023-11-21T13:10:59;4.33;;;3.57;;
16577;SDS011;8401;52.528;13.340;2023-11-21T13:13:27;6.23;;;4.23;;
16577;SDS011;8401;52.528;13.340;2023-11-21T13:15:55;7.27;;;4.20;;
16577;SDS011;8401;52.528;13.340;2023-11-21T13:18:30;8.57;;;4.10;;
16577;SDS011;8401;52.528;13.340;2023-11-21T13:20:56;6.27;;;4.20;;
16577;SDS011;8401;52.528;13.340;2023-11-21T13:23:23;7.33;;;4.83;;
16577;SDS011;8401;52.528;13.340;2023-11-21T13:25:50;6.80;;;5.03;;
16577;SDS011;8401;52.528;13.340;2023-11-21T13:28:17;9.17;;;5.70;;
16577;SDS011;8401;52.528;13.340;2023-11-21T13:30:49;10.00;;;5.37;;
16577;SDS011;8401;52.528;13.340;2023-11-21T13:33:17;8.13;;;4.93;;
16577;SDS011;8401;52.528;13.340;2023-11-21T13:35:46;10.03;;;5.40;;
16577;SDS011;8401;52.528;13.340;2023-11-21T13:38:17;9.60;;;5.97;;
16577;SDS011;8401;52.528;13.340;2023-11-21T13:40:48;9.90;;;6.13;;
16577;SDS011;8401;52.528;13.340;2023-11-21T13:43:17;9.53;;;6.10;;
16577;SDS011;8401;52.528;13.340;2023-11-21T13:45:45;10.37;;;6.43;;
16577;SDS011;8401;52.528;13.340;2023-11-21T13:48:12;10.43;;;6.70;;
16577;SDS011;8401;52.528;13.340;2023-11-21T13:50:50;12.30;;;7.50;;
16577;SDS011;8401;52.528;13.340;2023-11-21T13:53:33;11.73;;;6.90;;
16577;SDS011;8401;52.528;13.340;2023-11-21T13:56:02;11.80;;;7.00;;
16577;SDS011;8401;52.528;13.340;2023-11-21T13:58:28;13.23;;;7.37;;
16577;SDS011;8401;52.528;13.340;2023-11-21T14:01:06;15.57;;;7.93;;
16577;SDS011;8401;52.528;13.340;2023-11-21T14:03:49;17.67;;;9.80;;
16577;SDS011;8401;52.528;13.340;2023-11-21T14:06:21;17.73;;;9.73;;
16577;SDS011;8401;52.528;13.340;2023-11-21T14:08:52;20.60;;;10.83;;
16577;SDS011;8401;52.528;13.340;2023-11-21T14:11:21;20.80;;;11.47;;
16577;SDS011;8401;52.528;13.340;2023-11-21T14:13:47;21.27;;;11.60;;
16577;SDS011;8401;52.528;13.340;2023-11-21T14:16:14;24.20;;;11.57;;
16577;SDS011;8401;52.528;13.340;2023-11-21T14:18:41;18.93;;;10.27;;
16577;SDS011;8401;52.528;13.340;2023-11-21T14:21:18;16.90;;;9.90;;
16577;SDS011;8401;52.528;13.340;2023-11-21T14:23:44;18.60;;;10.37;;
16577;SDS011;8401;52.528;13.340;2023-11-21T14:26:10;15.20;;;9.37;;
16577;SDS011;8401;52.528;13.340;2023-11-21T14:28:39;16.57;;;9.70;;
16577;SDS011;8401;52.528;13.340;2023-11-21T14:31:04;15.57;;;9.40;;
16577;SDS011;8401;52.528;13.340;2023-11-21T14:33:30;15.97;;;9.93;;
16577;SDS011;8401;52.528;13.340;2023-11-21T14:35:56;18.40;;;9.43;;
16577;SDS011;8401;52.528;13.340;2023-11-21T14:38:22;14.77;;;9.77;;
16577;SDS011;8401;52.528;13.340;2023-11-21T14:40:48;18.30;;;10.60;;
16577;SDS011;8401;52.528;13.340;2023-11-21T14:43:14;13.20;;;9.73;;
16577;SDS011;8401;52.528;13.340;2023-11-21T14:45:40;14.50;;;9.63;;
16577;SDS011;8401;52.528;13.340;2023-11-21T14:48:06;15.30;;;10.20;;
16577;SDS011;8401;52.528;13.340;2023-11-21T14:50:41;17.17;;;10.13;;
16577;SDS011;8401;52.528;13.340;2023-11-21T14:53:08;15.13;;;9.67;;
16577;SDS011;8401;52.528;13.340;2023-11-21T14:55:34;15.60;;;9.73;;
16577;SDS011;8401;52.528;13.340;2023-11-21T14:58:16;16.20;;;10.93;;
16577;SDS011;8401;52.528;13.340;2023-11-21T15:00:51;17.23;;;11.20;;
16577;SDS011;8401;52.528;13.340;2023-11-21T15:03:27;18.33;;;10.77;;
16577;SDS011;8401;52.528;13.340;2023-11-21T15:05:56;18.70;;;11.67;;
16577;SDS011;8401;52.528;13.340;2023-11-21T15:08:44;14.30;;;10.50;;
16577;SDS011;8401;52.528;13.340;2023-11-21T15:11:13;14.93;;;10.23;;
16577;SDS011;8401;52.528;13.340;2023-11-21T15:13:41;15.73;;;9.97;;
16577;SDS011;8401;52.528;13.340;2023-11-21T15:16:07;13.13;;;9.07;;
16577;SDS011;8401;52.528;13.340;2023-11-21T15:18:34;12.80;;;8.83;;
16577;SDS011;8401;52.528;13.340;2023-11-21T15:21:01;13.37;;;9.57;;
16577;SDS011;8401;52.528;13.340;2023-11-21T15:23:28;12.57;;;8.90;;
16577;SDS011;8401;52.528;13.340;2023-11-21T15:25:56;12.13;;;8.37;;